sensor_id;sensor_type;location;lat;lon;timestamp;pressure;altitude;pressure_sealevel;temperature;humidity
10638;BME280;47007;49.252;8.904;2023-03-05T00:00:37;100189.09;;;4.22;100.00
10638;BME280;47007;49.252;8.904;2023-03-05T00:01:22;100183.84;;;4.22;100.00
10638;BME280;47007;49.252;8.904;2023-03-05T00:02:04;100117.19;;;3.84;100.00
10638;BME280;47007;49.252;8.904;2023-03-05T00:02:47;100180.00;;;4.26;100.00
10638;BME280;47007;49.252;8.904;2023-03-05T00:03:29;100171.16;;;4.27;100.00
10638;BME280;47007;49.252;8.904;2023-03-05T00:04:13;100154.84;;;4.14;100.00
10638;BME280;47007;49.252;8.904;2023-03-05T00:04:55;100176.53;;;4.25;100.00
10638;BME280;47007;49.252;8.904;2023-03-05T00:05:36;100170.84;;;4.20;100.00
10638;BME280;47007;49.252;8.904;2023-03-05T00:06:20;100156.50;;;4.15;100.00
10638;BME280;47007;49.252;8.904;2023-03-05T00:07:02;100156.09;;;4.19;100.00
10638;BME280;47007;49.252;8.904;2023-03-05T00:07:44;100177.09;;;4.29;100.00
10638;BME280;47007;49.252;8.904;2023-03-05T00:08:26;100127.75;;;4.04;100.00
10638;BME280;47007;49.252;8.904;2023-03-05T00:09:08;100163.72;;;4.32;100.00
10638;BME280;47007;49.252;8.904;2023-03-05T00:09:50;100172.13;;;4.36;100.00
10638;BME280;47007;49.252;8.904;2023-03-05T00:10:32;100145.88;;;4.26;100.00
10638;BME280;47007;49.252;8.904;2023-03-05T00:11:14;100171.47;;;4.43;100.00
10638;BME280;47007;49.252;8.904;2023-03-05T00:11:56;100174.09;;;4.43;100.00
10638;BME280;47007;49.252;8.904;2023-03-05T00:12:37;100169.38;;;4.37;100.00
10638;BME280;47007;49.252;8.904;2023-03-05T00:13:19;100178.91;;;4.38;100.00
10638;BME280;47007;49.252;8.904;2023-03-05T00:14:02;100155.41;;;4.17;100.00
10638;BME280;47007;49.252;8.904;2023-03-05T00:14:44;100175.72;;;4.25;100.00
10638;BME280;47007;49.252;8.904;2023-03-05T00:15:26;100153.72;;;4.07;100.00
10638;BME280;47007;49.252;8.904;2023-03-05T00:16:10;100174.72;;;4.16;100.00
10638;BME280;47007;49.252;8.904;2023-03-05T00:16:52;100183.56;;;4.15;100.00
10638;BME280;47007;49.252;8.904;2023-03-05T00:17:34;100179.13;;;4.16;100.00
10638;BME280;47007;49.252;8.904;2023-03-05T00:18:16;100185.09;;;4.18;100.00
10638;BME280;47007;49.252;8.904;2023-03-05T00:18:58;100182.34;;;4.19;100.00
10638;BME280;47007;49.252;8.904;2023-03-05T00:19:40;100184.97;;;4.19;100.00
10638;BME280;47007;49.252;8.904;2023-03-05T00:20:22;100170.97;;;4.09;100.00
10638;BME280;47007;49.252;8.904;2023-03-05T00:21:12;100181.63;;;4.17;100.00
10638;BME280;47007;49.252;8.904;2023-03-05T00:21:57;100177.91;;;4.20;100.00
10638;BME280;47007;49.252;8.904;2023-03-05T00:22:39;100171.97;;;4.18;100.00
10638;BME280;47007;49.252;8.904;2023-03-05T00:23:20;100176.66;;;4.24;100.00
10638;BME280;47007;49.252;8.904;2023-03-05T00:24:08;100183.72;;;4.23;100.00
10638;BME280;47007;49.252;8.904;2023-03-05T00:24:51;100166.97;;;4.15;100.00
10638;BME280;47007;49.252;8.904;2023-03-05T00:25:36;100180.25;;;4.23;100.00
10638;BME280;47007;49.252;8.904;2023-03-05T00:26:18;100182.88;;;4.23;100.00
10638;BME280;47007;49.252;8.904;2023-03-05T00:27:01;100176.66;;;4.24;100.00
10638;BME280;47007;49.252;8.904;2023-03-05T00:27:43;100150.81;;;4.10;100.00
10638;BME280;47007;49.252;8.904;2023-03-05T00:28:24;100175.00;;;4.23;100.00
10638;BME280;47007;49.252;8.904;2023-03-05T00:29:07;100172.50;;;4.21;100.00
10638;BME280;47007;49.252;8.904;2023-03-05T00:29:49;100166.41;;;4.11;100.00
10638;BME280;47007;49.252;8.904;2023-03-05T00:30:31;100183.16;;;4.20;100.00
10638;BME280;47007;49.252;8.904;2023-03-05T00:31:13;100171.00;;;4.19;100.00
10638;BME280;47007;49.252;8.904;2023-03-05T00:31:55;100176.25;;;4.19;100.00
10638;BME280;47007;49.252;8.904;2023-03-05T00:32:37;100152.88;;;4.06;100.00
10638;BME280;47007;49.252;8.904;2023-03-05T00:33:18;100147.47;;;3.98;100.00
10638;BME280;47007;49.252;8.904;2023-03-05T00:34:06;100157.72;;;4.11;100.00
10638;BME280;47007;49.252;8.904;2023-03-05T00:34:48;100153.72;;;4.07;100.00
10638;BME280;47007;49.252;8.904;2023-03-05T00:35:30;100154.56;;;4.07;100.00
10638;BME280;47007;49.252;8.904;2023-03-05T00:36:12;100122.88;;;3.89;100.00
10638;BME280;47007;49.252;8.904;2023-03-05T00:36:53;100158.03;;;4.17;100.00
10638;BME280;47007;49.252;8.904;2023-03-05T00:37:35;100166.44;;;4.21;100.00
10638;BME280;47007;49.252;8.904;2023-03-05T00:38:17;100174.03;;;4.24;100.00
10638;BME280;47007;49.252;8.904;2023-03-05T00:38:59;100173.66;;;4.28;100.00
10638;BME280;47007;49.252;8.904;2023-03-05T00:39:41;100168.97;;;4.32;100.00
10638;BME280;47007;49.252;8.904;2023-03-05T00:40:22;100163.31;;;4.37;100.00
10638;BME280;47007;49.252;8.904;2023-03-05T00:41:04;100168.41;;;4.38;100.00
10638;BME280;47007;49.252;8.904;2023-03-05T00:41:46;100156.81;;;4.31;100.00
10638;BME280;47007;49.252;8.904;2023-03-05T00:42:28;100159.03;;;4.36;100.00
10638;BME280;47007;49.252;8.904;2023-03-05T00:43:10;100162.91;;;4.31;100.00
10638;BME280;47007;49.252;8.904;2023-03-05T00:43:52;100157.47;;;4.23;100.00
10638;BME280;47007;49.252;8.904;2023-03-05T00:44:34;100140.31;;;4.10;100.00
10638;BME280;47007;49.252;8.904;2023-03-05T00:45:16;100160.66;;;4.17;100.00
10638;BME280;47007;49.252;8.904;2023-03-05T00:45:57;100150.13;;;4.08;100.00
10638;BME280;47007;49.252;8.904;2023-03-05T00:46:39;100141.81;;;4.03;100.00
10638;BME280;47007;49.252;8.904;2023-03-05T00:47:21;100152.06;;;4.06;100.00
10638;BME280;47007;49.252;8.904;2023-03-05T00:48:03;100153.44;;;4.10;100.00
10638;BME280;47007;49.252;8.904;2023-03-05T00:48:45;100158.41;;;4.13;100.00
10638;BME280;47007;49.252;8.904;2023-03-05T00:49:26;100148.84;;;4.02;100.00
10638;BME280;47007;49.252;8.904;2023-03-05T00:50:08;100129.78;;;3.90;100.00
10638;BME280;47007;49.252;8.904;2023-03-05T00:50:50;100152.19;;;4.04;100.00
10638;BME280;47007;49.252;8.904;2023-03-05T00:51:32;100152.88;;;4.06;100.00
10638;BME280;47007;49.252;8.904;2023-03-05T00:52:15;100128.81;;;3.91;100.00
10638;BME280;47007;49.252;8.904;2023-03-05T00:52:57;100150.38;;;4.05;100.00
10638;BME280;47007;49.252;8.904;2023-03-05T00:53:39;100134.06;;;3.91;100.00
10638;BME280;47007;49.252;8.904;2023-03-05T00:54:20;100152.19;;;4.04;100.00
10638;BME280;47007;49.252;8.904;2023-03-05T00:55:03;100146.63;;;3.97;100.00
10638;BME280;47007;49.252;8.904;2023-03-05T00:55:45;100164.47;;;4.04;100.00
10638;BME280;47007;49.252;8.904;2023-03-05T00:56:26;100155.06;;;4.01;100.00
10638;BME280;47007;49.252;8.904;2023-03-05T00:57:08;100149.94;;;4.00;100.00
10638;BME280;47007;49.252;8.904;2023-03-05T00:57:50;100145.66;;;3.98;100.00
10638;BME280;47007;49.252;8.904;2023-03-05T00:58:32;100152.69;;;3.98;100.00
10638;BME280;47007;49.252;8.904;2023-03-05T00:59:13;100157.94;;;3.98;100.00
10638;BME280;47007;49.252;8.904;2023-03-05T00:59:55;100144.00;;;3.97;100.00
10638;BME280;47007;49.252;8.904;2023-03-05T01:00:37;100143.16;;;3.97;100.00
10638;BME280;47007;49.252;8.904;2023-03-05T01:01:19;100137.38;;;3.93;100.00
10638;BME280;47007;49.252;8.904;2023-03-05T01:02:01;100138.72;;;3.88;100.00
10638;BME280;47007;49.252;8.904;2023-03-05T01:02:43;100136.44;;;3.94;100.00
10638;BME280;47007;49.252;8.904;2023-03-05T01:03:25;100136.94;;;3.88;100.00
10638;BME280;47007;49.252;8.904;2023-03-05T01:04:07;100140.13;;;3.92;100.00
10638;BME280;47007;49.252;8.904;2023-03-05T01:04:49;100113.28;;;3.69;100.00
10638;BME280;47007;49.252;8.904;2023-03-05T01:05:31;100138.34;;;3.92;100.00
10638;BME280;47007;49.252;8.904;2023-03-05T01:06:13;100125.88;;;3.85;100.00
10638;BME280;47007;49.252;8.904;2023-03-05T01:06:58;100135.88;;;4.01;100.00
10638;BME280;47007;49.252;8.904;2023-03-05T01:07:40;100142.78;;;4.02;100.00
10638;BME280;47007;49.252;8.904;2023-03-05T01:08:23;100131.78;;;4.08;100.00
10638;BME280;47007;49.252;8.904;2023-03-05T01:09:04;100136.31;;;4.06;100.00
10638;BME280;47007;49.252;8.904;2023-03-05T01:09:46;100121.66;;;3.93;100.00
10638;BME280;47007;49.252;8.904;2023-03-05T01:10:28;100124.41;;;3.92;100.00
10638;BME280;47007;49.252;8.904;2023-03-05T01:11:11;100138.94;;;4.06;100.00
10638;BME280;47007;49.252;8.904;2023-03-05T01:11:53;100136.00;;;3.99;100.00
10638;BME280;47007;49.252;8.904;2023-03-05T01:12:35;100126.59;;;3.96;100.00
10638;BME280;47007;49.252;8.904;2023-03-05T01:13:17;100100.50;;;3.85;100.00
10638;BME280;47007;49.252;8.904;2023-03-05T01:13:59;100122.34;;;3.95;100.00
10638;BME280;47007;49.252;8.904;2023-03-05T01:14:41;100143.06;;;4.08;100.00
10638;BME280;47007;49.252;8.904;2023-03-05T01:15:23;100134.22;;;4.09;100.00
10638;BME280;47007;49.252;8.904;2023-03-05T01:16:06;100135.06;;;4.10;100.00
10638;BME280;47007;49.252;8.904;2023-03-05T01:16:48;100130.66;;;4.10;100.00
10638;BME280;47007;49.252;8.904;2023-03-05T01:17:30;100134.94;;;4.11;100.00
10638;BME280;47007;49.252;8.904;2023-03-05T01:18:12;100131.34;;;4.12;100.00
10638;BME280;47007;49.252;8.904;2023-03-05T01:18:54;100124.56;;;4.10;100.00
10638;BME280;47007;49.252;8.904;2023-03-05T01:19:36;100137.81;;;4.08;100.00
10638;BME280;47007;49.252;8.904;2023-03-05T01:20:20;100120.72;;;4.14;100.00
10638;BME280;47007;49.252;8.904;2023-03-05T01:21:03;100119.75;;;4.15;100.00
10638;BME280;47007;49.252;8.904;2023-03-05T01:21:44;100130.00;;;4.18;100.00
10638;BME280;47007;49.252;8.904;2023-03-05T01:22:26;100128.06;;;4.20;100.00
10638;BME280;47007;49.252;8.904;2023-03-05T01:23:08;100105.44;;;4.19;100.00
10638;BME280;47007;49.252;8.904;2023-03-05T01:23:50;100123.09;;;4.26;100.00
10638;BME280;47007;49.252;8.904;2023-03-05T01:24:32;100125.03;;;4.34;100.00
10638;BME280;47007;49.252;8.904;2023-03-05T01:25:14;100111.25;;;4.32;100.00
10638;BME280;47007;49.252;8.904;2023-03-05T01:25:57;100122.84;;;4.39;100.00
10638;BME280;47007;49.252;8.904;2023-03-05T01:26:40;100095.06;;;4.27;100.00
10638;BME280;47007;49.252;8.904;2023-03-05T01:27:22;100094.50;;;4.33;100.00
10638;BME280;47007;49.252;8.904;2023-03-05T01:28:04;100113.63;;;4.45;100.00
10638;BME280;47007;49.252;8.904;2023-03-05T01:28:46;100111.66;;;4.47;100.00
10638;BME280;47007;49.252;8.904;2023-03-05T01:29:28;100121.06;;;4.49;100.00
10638;BME280;47007;49.252;8.904;2023-03-05T01:30:12;100108.75;;;4.50;100.00
10638;BME280;47007;49.252;8.904;2023-03-05T01:30:54;100075.59;;;4.29;100.00
10638;BME280;47007;49.252;8.904;2023-03-05T01:31:36;100113.88;;;4.51;100.00
10638;BME280;47007;49.252;8.904;2023-03-05T01:32:18;100112.22;;;4.50;100.00
10638;BME280;47007;49.252;8.904;2023-03-05T01:33:00;100097.44;;;4.40;100.00
10638;BME280;47007;49.252;8.904;2023-03-05T01:33:42;100109.72;;;4.49;100.00
10638;BME280;47007;49.252;8.904;2023-03-05T01:34:24;100102.69;;;4.49;100.00
10638;BME280;47007;49.252;8.904;2023-03-05T01:35:07;100104.34;;;4.50;100.00
10638;BME280;47007;49.252;8.904;2023-03-05T01:35:49;100109.47;;;4.52;100.00
10638;BME280;47007;49.252;8.904;2023-03-05T01:36:31;100092.75;;;4.43;100.00
10638;BME280;47007;49.252;8.904;2023-03-05T01:37:13;100039.97;;;4.08;100.00
10638;BME280;47007;49.252;8.904;2023-03-05T01:37:55;100096.34;;;4.42;100.00
10638;BME280;47007;49.252;8.904;2023-03-05T01:38:36;100084.00;;;4.33;100.00
10638;BME280;47007;49.252;8.904;2023-03-05T01:39:19;100079.75;;;4.32;100.00
10638;BME280;47007;49.252;8.904;2023-03-05T01:40:00;100105.44;;;4.48;100.00
10638;BME280;47007;49.252;8.904;2023-03-05T01:40:42;100098.66;;;4.45;100.00
10638;BME280;47007;49.252;8.904;2023-03-05T01:41:24;100100.88;;;4.40;100.00
10638;BME280;47007;49.252;8.904;2023-03-05T01:42:06;100116.38;;;4.43;100.00
10638;BME280;47007;49.252;8.904;2023-03-05T01:42:55;100116.50;;;4.42;100.00
10638;BME280;47007;49.252;8.904;2023-03-05T01:43:37;100097.31;;;4.41;100.00
10638;BME280;47007;49.252;8.904;2023-03-05T01:44:25;100085.84;;;4.32;100.00
10638;BME280;47007;49.252;8.904;2023-03-05T01:46:22;100098.66;;;4.45;100.00
10638;BME280;47007;49.252;8.904;2023-03-05T01:47:04;100101.03;;;4.48;100.00
10638;BME280;47007;49.252;8.904;2023-03-05T01:47:46;100073.25;;;4.36;100.00
10638;BME280;47007;49.252;8.904;2023-03-05T01:48:28;100104.91;;;4.54;100.00
10638;BME280;47007;49.252;8.904;2023-03-05T01:49:30;100085.84;;;4.42;100.00
10638;BME280;47007;49.252;8.904;2023-03-05T01:50:19;100093.16;;;4.58;100.00
10638;BME280;47007;49.252;8.904;2023-03-05T01:51:03;100097.72;;;4.56;100.00
10638;BME280;47007;49.252;8.904;2023-03-05T01:52:20;100104.22;;;4.61;100.00
10638;BME280;47007;49.252;8.904;2023-03-05T01:53:04;100071.19;;;4.49;100.00
10638;BME280;47007;49.252;8.904;2023-03-05T01:53:47;100032.38;;;4.24;100.00
10638;BME280;47007;49.252;8.904;2023-03-05T01:54:34;100087.75;;;4.59;100.00
10638;BME280;47007;49.252;8.904;2023-03-05T01:55:20;100045.91;;;4.29;100.00
10638;BME280;47007;49.252;8.904;2023-03-05T01:56:03;100064.00;;;4.42;100.00
10638;BME280;47007;49.252;8.904;2023-03-05T01:56:47;100089.72;;;4.57;100.00
10638;BME280;47007;49.252;8.904;2023-03-05T01:57:41;100100.22;;;4.57;100.00
10638;BME280;47007;49.252;8.904;2023-03-05T01:58:24;100089.84;;;4.56;100.00
10638;BME280;47007;49.252;8.904;2023-03-05T01:59:07;100090.69;;;4.56;100.00
10638;BME280;47007;49.252;8.904;2023-03-05T01:59:54;100091.66;;;4.55;100.00
10638;BME280;47007;49.252;8.904;2023-03-05T02:00:40;100090.00;;;4.54;100.00
10638;BME280;47007;49.252;8.904;2023-03-05T02:01:24;100041.38;;;4.31;100.00
10638;BME280;47007;49.252;8.904;2023-03-05T02:02:06;100082.66;;;4.48;100.00
10638;BME280;47007;49.252;8.904;2023-03-05T02:02:49;100076.69;;;4.46;100.00
10638;BME280;47007;49.252;8.904;2023-03-05T02:03:32;100081.56;;;4.51;100.00
10638;BME280;47007;49.252;8.904;2023-03-05T02:04:16;100082.38;;;4.51;100.00
10638;BME280;47007;49.252;8.904;2023-03-05T02:05:08;100078.78;;;4.52;100.00
10638;BME280;47007;49.252;8.904;2023-03-05T02:05:51;100082.25;;;4.53;100.00
10638;BME280;47007;49.252;8.904;2023-03-05T02:06:33;100097.16;;;4.52;100.00
10638;BME280;47007;49.252;8.904;2023-03-05T02:07:15;100082.25;;;4.43;100.00
10638;BME280;47007;49.252;8.904;2023-03-05T02:07:59;100079.91;;;4.50;100.00
10638;BME280;47007;49.252;8.904;2023-03-05T02:08:42;100081.69;;;4.49;100.00
10638;BME280;47007;49.252;8.904;2023-03-05T02:09:25;100088.03;;;4.47;100.00
10638;BME280;47007;49.252;8.904;2023-03-05T02:10:23;100054.31;;;4.23;100.00
10638;BME280;47007;49.252;8.904;2023-03-05T02:11:06;100073.38;;;4.34;100.00
10638;BME280;47007;49.252;8.904;2023-03-05T02:11:49;100078.50;;;4.36;100.00
10638;BME280;47007;49.252;8.904;2023-03-05T02:12:31;100066.47;;;4.33;100.00
10638;BME280;47007;49.252;8.904;2023-03-05T02:13:16;100052.53;;;4.23;100.00
10638;BME280;47007;49.252;8.904;2023-03-05T02:13:59;100051.56;;;4.24;100.00
10638;BME280;47007;49.252;8.904;2023-03-05T02:14:44;100065.38;;;4.36;100.00
10638;BME280;47007;49.252;8.904;2023-03-05T02:15:27;100085.00;;;4.42;100.00
10638;BME280;47007;49.252;8.904;2023-03-05T02:16:09;100075.34;;;4.42;100.00
10638;BME280;47007;49.252;8.904;2023-03-05T02:16:51;100043.28;;;4.19;100.00
10638;BME280;47007;49.252;8.904;2023-03-05T02:17:33;100089.28;;;4.43;100.00
10638;BME280;47007;49.252;8.904;2023-03-05T02:18:15;100077.00;;;4.43;100.00
10638;BME280;47007;49.252;8.904;2023-03-05T02:18:57;100076.88;;;4.45;100.00
10638;BME280;47007;49.252;8.904;2023-03-05T02:20:04;100072.56;;;4.34;100.00
10638;BME280;47007;49.252;8.904;2023-03-05T02:21:40;100080.28;;;4.45;100.00
10638;BME280;47007;49.252;8.904;2023-03-05T02:22:23;100075.88;;;4.46;100.00
10638;BME280;47007;49.252;8.904;2023-03-05T02:23:05;100065.38;;;4.36;100.00
10638;BME280;47007;49.252;8.904;2023-03-05T02:23:47;100036.66;;;4.25;100.00
10638;BME280;47007;49.252;8.904;2023-03-05T02:24:35;100072.28;;;4.47;100.00
10638;BME280;47007;49.252;8.904;2023-03-05T02:25:25;100066.38;;;4.45;100.00
10638;BME280;47007;49.252;8.904;2023-03-05T02:26:09;100067.88;;;4.47;100.00
10638;BME280;47007;49.252;8.904;2023-03-05T02:26:51;100075.59;;;4.49;100.00
10638;BME280;47007;49.252;8.904;2023-03-05T02:27:33;100074.78;;;4.48;100.00
10638;BME280;47007;49.252;8.904;2023-03-05T02:28:22;100009.03;;;4.11;100.00
10638;BME280;47007;49.252;8.904;2023-03-05T02:29:07;100064.28;;;4.39;100.00
10638;BME280;47007;49.252;8.904;2023-03-05T02:29:50;99981.84;;;3.93;100.00
10638;BME280;47007;49.252;8.904;2023-03-05T02:30:32;100076.03;;;4.44;100.00
10638;BME280;47007;49.252;8.904;2023-03-05T02:31:19;100078.66;;;4.44;100.00
10638;BME280;47007;49.252;8.904;2023-03-05T02:32:01;100071.19;;;4.40;100.00
10638;BME280;47007;49.252;8.904;2023-03-05T02:32:43;100077.97;;;4.42;100.00
10638;BME280;47007;49.252;8.904;2023-03-05T02:33:25;100076.88;;;4.45;100.00
10638;BME280;47007;49.252;8.904;2023-03-05T02:34:07;100071.63;;;4.45;100.00
10638;BME280;47007;49.252;8.904;2023-03-05T02:34:49;100082.91;;;4.45;100.00
10638;BME280;47007;49.252;8.904;2023-03-05T02:35:31;100076.03;;;4.44;100.00
10638;BME280;47007;49.252;8.904;2023-03-05T02:36:14;100080.47;;;4.44;100.00
10638;BME280;47007;49.252;8.904;2023-03-05T02:36:56;100068.16;;;4.44;100.00
10638;BME280;47007;49.252;8.904;2023-03-05T02:37:38;100063.31;;;4.40;100.00
10638;BME280;47007;49.252;8.904;2023-03-05T02:38:20;100054.63;;;4.39;100.00
10638;BME280;47007;49.252;8.904;2023-03-05T02:39:03;100067.34;;;4.44;100.00
10638;BME280;47007;49.252;8.904;2023-03-05T02:39:44;100068.16;;;4.44;100.00
10638;BME280;47007;49.252;8.904;2023-03-05T02:40:26;100049.78;;;4.34;100.00
10638;BME280;47007;49.252;8.904;2023-03-05T02:41:08;100056.00;;;4.43;100.00
10638;BME280;47007;49.252;8.904;2023-03-05T02:41:50;100066.50;;;4.43;100.00
10638;BME280;47007;49.252;8.904;2023-03-05T02:42:32;100057.38;;;4.38;100.00
10638;BME280;47007;49.252;8.904;2023-03-05T02:43:14;100052.00;;;4.39;100.00
10638;BME280;47007;49.252;8.904;2023-03-05T02:43:56;100066.50;;;4.43;100.00
10638;BME280;47007;49.252;8.904;2023-03-05T02:44:37;100056.16;;;4.42;100.00
10638;BME280;47007;49.252;8.904;2023-03-05T02:45:19;100061.91;;;4.45;100.00
10638;BME280;47007;49.252;8.904;2023-03-05T02:46:01;100014.97;;;4.13;100.00
10638;BME280;47007;49.252;8.904;2023-03-05T02:46:43;100041.75;;;4.36;100.00
10638;BME280;47007;49.252;8.904;2023-03-05T02:47:24;100056.53;;;4.47;100.00
10638;BME280;47007;49.252;8.904;2023-03-05T02:48:06;100038.44;;;4.34;100.00
10638;BME280;47007;49.252;8.904;2023-03-05T02:48:48;100060.00;;;4.47;100.00
10638;BME280;47007;49.252;8.904;2023-03-05T02:49:30;100045.91;;;4.48;100.00
10638;BME280;47007;49.252;8.904;2023-03-05T02:50:12;100033.34;;;4.32;100.00
10638;BME280;47007;49.252;8.904;2023-03-05T02:50:54;100040.09;;;4.35;100.00
10638;BME280;47007;49.252;8.904;2023-03-05T02:51:36;100035.56;;;4.37;100.00
10638;BME280;47007;49.252;8.904;2023-03-05T02:52:20;100052.94;;;4.48;100.00
10638;BME280;47007;49.252;8.904;2023-03-05T02:53:05;100052.56;;;4.43;100.00
10638;BME280;47007;49.252;8.904;2023-03-05T02:53:47;100043.16;;;4.40;100.00
10638;BME280;47007;49.252;8.904;2023-03-05T02:54:29;100050.63;;;4.45;100.00
10638;BME280;47007;49.252;8.904;2023-03-05T02:55:11;100053.38;;;4.43;100.00
10638;BME280;47007;49.252;8.904;2023-03-05T02:55:54;100062.34;;;4.41;100.00
10638;BME280;47007;49.252;8.904;2023-03-05T02:56:35;100022.00;;;4.22;100.00
10638;BME280;47007;49.252;8.904;2023-03-05T02:57:19;100056.81;;;4.34;100.00
10638;BME280;47007;49.252;8.904;2023-03-05T02:58:01;100062.50;;;4.29;100.00
10638;BME280;47007;49.252;8.904;2023-03-05T02:58:43;100036.38;;;4.18;100.00
10638;BME280;47007;49.252;8.904;2023-03-05T02:59:25;100040.09;;;4.16;100.00
10638;BME280;47007;49.252;8.904;2023-03-05T03:00:07;100053.78;;;4.19;100.00
10638;BME280;47007;49.252;8.904;2023-03-05T03:00:49;100053.22;;;4.16;100.00
10638;BME280;47007;49.252;8.904;2023-03-05T03:01:31;100044.38;;;4.07;100.00
10638;BME280;47007;49.252;8.904;2023-03-05T03:02:13;100038.84;;;4.01;100.00
10638;BME280;47007;49.252;8.904;2023-03-05T03:02:55;99951.69;;;3.49;100.00
10638;BME280;47007;49.252;8.904;2023-03-05T03:03:37;100038.97;;;3.99;100.00
10638;BME280;47007;49.252;8.904;2023-03-05T03:04:19;100018.13;;;3.88;100.00
10638;BME280;47007;49.252;8.904;2023-03-05T03:05:02;100047.84;;;4.08;100.00
10638;BME280;47007;49.252;8.904;2023-03-05T03:05:44;100045.63;;;4.13;100.00
10638;BME280;47007;49.252;8.904;2023-03-05T03:06:26;100037.63;;;4.14;100.00
10638;BME280;47007;49.252;8.904;2023-03-05T03:07:07;99912.09;;;3.42;100.00
10638;BME280;47007;49.252;8.904;2023-03-05T03:07:49;100023.53;;;4.15;100.00
10638;BME280;47007;49.252;8.904;2023-03-05T03:08:31;100007.81;;;4.06;100.00
10638;BME280;47007;49.252;8.904;2023-03-05T03:09:12;100024.91;;;4.10;100.00
10638;BME280;47007;49.252;8.904;2023-03-05T03:09:54;100034.16;;;4.14;100.00
10638;BME280;47007;49.252;8.904;2023-03-05T03:10:36;100046.19;;;4.07;100.00
10638;BME280;47007;49.252;8.904;2023-03-05T03:11:17;100012.59;;;3.91;100.00
10638;BME280;47007;49.252;8.904;2023-03-05T03:11:59;100030.00;;;4.02;100.00
10638;BME280;47007;49.252;8.904;2023-03-05T03:12:42;100027.13;;;3.95;100.00
10638;BME280;47007;49.252;8.904;2023-03-05T03:13:24;100019.91;;;3.87;100.00
10638;BME280;47007;49.252;8.904;2023-03-05T03:14:06;100034.16;;;3.94;100.00
10638;BME280;47007;49.252;8.904;2023-03-05T03:14:47;100025.59;;;3.92;100.00
10638;BME280;47007;49.252;8.904;2023-03-05T03:15:29;99993.81;;;3.76;100.00
10638;BME280;47007;49.252;8.904;2023-03-05T03:16:13;99999.06;;;3.76;100.00
10638;BME280;47007;49.252;8.904;2023-03-05T03:16:57;100029.03;;;3.93;100.00
10638;BME280;47007;49.252;8.904;2023-03-05T03:17:39;100033.44;;;3.92;100.00
10638;BME280;47007;49.252;8.904;2023-03-05T03:18:20;100015.63;;;3.86;100.00
10638;BME280;47007;49.252;8.904;2023-03-05T03:19:02;99992.16;;;3.75;100.00
10638;BME280;47007;49.252;8.904;2023-03-05T03:19:45;100021.56;;;3.98;100.00
10638;BME280;47007;49.252;8.904;2023-03-05T03:20:26;100016.63;;;3.95;100.00
10638;BME280;47007;49.252;8.904;2023-03-05T03:21:15;100015.78;;;3.94;100.00
10638;BME280;47007;49.252;8.904;2023-03-05T03:21:57;100000.44;;;3.80;100.00
10638;BME280;47007;49.252;8.904;2023-03-05T03:22:39;99956.66;;;3.52;100.00
10638;BME280;47007;49.252;8.904;2023-03-05T03:23:21;100011.22;;;3.87;100.00
10638;BME280;47007;49.252;8.904;2023-03-05T03:24:03;100013.44;;;3.91;100.00
10638;BME280;47007;49.252;8.904;2023-03-05T03:24:45;100009.03;;;3.92;100.00
10638;BME280;47007;49.252;8.904;2023-03-05T03:25:26;99965.50;;;3.60;100.00
10638;BME280;47007;49.252;8.904;2023-03-05T03:26:08;100003.22;;;3.88;100.00
10638;BME280;47007;49.252;8.904;2023-03-05T03:26:49;99999.63;;;3.89;100.00
10638;BME280;47007;49.252;8.904;2023-03-05T03:27:31;100011.09;;;3.98;100.00
10638;BME280;47007;49.252;8.904;2023-03-05T03:28:13;99937.47;;;3.51;100.00
10638;BME280;47007;49.252;8.904;2023-03-05T03:28:54;100002.69;;;3.94;100.00
10638;BME280;47007;49.252;8.904;2023-03-05T03:29:36;100001.28;;;4.00;100.00
10638;BME280;47007;49.252;8.904;2023-03-05T03:30:18;99975.34;;;3.87;100.00
10638;BME280;47007;49.252;8.904;2023-03-05T03:31:00;100008.19;;;4.11;100.00
10638;BME280;47007;49.252;8.904;2023-03-05T03:31:45;99994.94;;;4.03;100.00
10638;BME280;47007;49.252;8.904;2023-03-05T03:32:28;100024.50;;;4.14;100.00
10638;BME280;47007;49.252;8.904;2023-03-05T03:33:09;100006.00;;;4.16;100.00
10638;BME280;47007;49.252;8.904;2023-03-05T03:33:51;100009.19;;;4.19;100.00
10638;BME280;47007;49.252;8.904;2023-03-05T03:34:33;99968.16;;;3.89;100.00
10638;BME280;47007;49.252;8.904;2023-03-05T03:35:14;100014.56;;;4.27;100.00
10638;BME280;47007;49.252;8.904;2023-03-05T03:35:56;100000.88;;;4.24;100.00
10638;BME280;47007;49.252;8.904;2023-03-05T03:36:38;99998.69;;;4.19;100.00
10638;BME280;47007;49.252;8.904;2023-03-05T03:37:19;99938.91;;;3.94;100.00
10638;BME280;47007;49.252;8.904;2023-03-05T03:38:01;100004.34;;;4.34;100.00
10638;BME280;47007;49.252;8.904;2023-03-05T03:38:43;99999.91;;;4.34;100.00
10638;BME280;47007;49.252;8.904;2023-03-05T03:39:24;99991.38;;;4.32;100.00
10638;BME280;47007;49.252;8.904;2023-03-05T03:40:07;99999.66;;;4.38;100.00
10638;BME280;47007;49.252;8.904;2023-03-05T03:40:49;99991.91;;;4.36;100.00
10638;BME280;47007;49.252;8.904;2023-03-05T03:41:31;99991.63;;;4.39;100.00
10638;BME280;47007;49.252;8.904;2023-03-05T03:42:19;99962.81;;;4.20;100.00
10638;BME280;47007;49.252;8.904;2023-03-05T03:43:02;99974.50;;;4.25;100.00
10638;BME280;47007;49.252;8.904;2023-03-05T03:43:44;99995.78;;;4.42;100.00
10638;BME280;47007;49.252;8.904;2023-03-05T03:44:25;99965.25;;;4.21;100.00
10638;BME280;47007;49.252;8.904;2023-03-05T03:45:07;99967.22;;;4.29;100.00
10638;BME280;47007;49.252;8.904;2023-03-05T03:45:49;99999.09;;;4.44;100.00
10638;BME280;47007;49.252;8.904;2023-03-05T03:46:31;99976.88;;;4.28;100.00